Time;durP1;ratioP1;P1;durP2;ratioP2;P2;SDS_P1;SDS_P2;PMS_P1;PMS_P2;Temp;Humidity;BMP_temperature;BMP_pressure;BME280_temperature;BME280_humidity;BME280_pressure;Samples;Min_cycle;Max_cycle;Signal;HPM_P1;HPM_P2
2021/05/01 00:01:07;;;;;;;14.77;13.10;;;9.90;1.00;;;;;;5032944;28;20201;-60
2021/05/01 00:03:32;;;;;;;19.10;14.97;;;9.80;1.00;;;;;;5032403;28;20231;-60
2021/05/01 00:05:58;;;;;;;17.80;14.77;;;10.00;1.00;;;;;;5032403;28;20178;-59
2021/05/01 00:08:28;;;;;;;16.43;14.80;;;10.00;1.00;;;;;;5032546;28;20197;-59
2021/05/01 00:10:54;;;;;;;17.13;13.57;;;10.10;1.00;;;;;;5032779;28;20188;-59
2021/05/01 00:13:20;;;;;;;15.68;14.05;;;10.10;1.00;;;;;;5032470;28;20176;-59
2021/05/01 00:15:45;;;;;;;17.77;14.10;;;10.10;1.00;;;;;;5032127;28;20267;-59
2021/05/01 00:18:11;;;;;;;15.03;13.47;;;10.00;1.00;;;;;;5032609;28;20224;-61
2021/05/01 00:20:36;;;;;;;15.50;13.27;;;9.90;1.00;;;;;;5031866;28;20211;-59
2021/05/01 00:23:02;;;;;;;16.00;13.70;;;9.80;1.00;;;;;;5032554;28;20575;-59
2021/05/01 00:25:27;;;;;;;15.40;13.80;;;9.80;1.00;;;;;;5032002;28;20178;-59
2021/05/01 00:27:53;;;;;;;15.20;13.10;;;10.10;1.00;;;;;;5032357;28;20180;-59
2021/05/01 00:30:19;;;;;;;14.47;12.63;;;10.00;1.00;;;;;;5047894;28;20557;-59
2021/05/01 00:32:45;;;;;;;13.70;12.30;;;9.90;1.00;;;;;;5033412;28;20517;-59
2021/05/01 00:35:11;;;;;;;16.10;13.40;;;9.90;1.00;;;;;;5035989;28;20188;-59
2021/05/01 00:37:37;;;;;;;15.65;12.48;;;9.90;1.00;;;;;;5036486;28;20182;-59
2021/05/01 00:40:05;;;;;;;14.60;12.77;;;9.70;1.00;;;;;;5036329;28;20195;-60
2021/05/01 00:42:31;;;;;;;14.05;12.30;;;9.70;1.00;;;;;;5035989;28;20629;-59
2021/05/01 00:44:56;;;;;;;12.93;11.63;;;9.60;1.00;;;;;;5035671;28;20275;-59
2021/05/01 00:47:22;;;;;;;13.10;10.90;;;9.60;1.00;;;;;;5034991;28;20184;-59
2021/05/01 00:49:47;;;;;;;13.07;11.67;;;9.50;1.00;;;;;;5036238;28;20309;-60
2021/05/01 00:52:13;;;;;;;10.90;9.80;;;9.40;1.00;;;;;;5036349;28;20244;-59
2021/05/01 00:54:38;;;;;;;10.10;8.83;;;9.40;1.00;;;;;;5035495;28;20606;-60
2021/05/01 00:57:05;;;;;;;11.43;10.23;;;9.50;1.00;;;;;;5035981;28;20189;-60
2021/05/01 00:59:30;;;;;;;10.60;9.50;;;9.40;1.00;;;;;;5036136;28;20182;-60
2021/05/01 01:01:58;;;;;;;11.00;9.90;;;9.40;1.00;;;;;;5035852;28;20281;-60
2021/05/01 01:04:23;;;;;;;12.20;9.65;;;9.40;1.00;;;;;;5035375;28;20184;-60
2021/05/01 01:06:49;;;;;;;9.80;8.80;;;9.50;1.00;;;;;;5036107;28;20192;-60
2021/05/01 01:09:14;;;;;;;10.70;9.60;;;9.50;1.00;;;;;;5035809;28;20560;-60
2021/05/01 01:11:41;;;;;;;11.97;10.53;;;9.50;1.00;;;;;;5035857;28;20486;-59
2021/05/01 01:14:09;;;;;;;10.35;8.95;;;9.40;1.00;;;;;;5035093;28;20173;-60
2021/05/01 01:16:35;;;;;;;11.65;10.07;;;9.30;1.00;;;;;;5035773;28;20238;-60
2021/05/01 01:19:02;;;;;;;9.40;8.50;;;9.40;1.00;;;;;;5035741;28;20178;-60
2021/05/01 01:21:27;;;;;;;13.73;9.82;;;9.40;1.00;;;;;;5051197;28;20199;-60
2021/05/01 01:23:54;;;;;;;10.93;9.73;;;9.50;1.00;;;;;;5035181;28;20185;-60
2021/05/01 01:26:20;;;;;;;10.93;8.68;;;9.50;1.00;;;;;;5035655;28;20184;-60
2021/05/01 01:28:47;;;;;;;10.47;9.07;;;9.50;1.00;;;;;;5035624;28;20213;-60
2021/05/01 01:31:13;;;;;;;9.98;8.57;;;9.30;1.00;;;;;;5035328;28;20184;-60
2021/05/01 01:33:39;;;;;;;12.67;9.80;;;9.40;1.00;;;;;;5035034;28;20235;-60
2021/05/01 01:36:06;;;;;;;13.88;10.27;;;9.40;1.00;;;;;;5034970;28;20602;-60
2021/05/01 01:38:32;;;;;;;9.23;8.07;;;9.20;1.00;;;;;;5035475;28;20646;-59
2021/05/01 01:40:58;;;;;;;9.98;8.07;;;9.30;1.00;;;;;;5035400;28;20212;-60
2021/05/01 01:43:25;;;;;;;9.50;7.83;;;9.30;1.00;;;;;;5034619;28;20680;-60
2021/05/01 01:45:51;;;;;;;9.70;8.50;;;9.20;1.00;;;;;;5035006;28;20185;-60
2021/05/01 01:48:17;;;;;;;15.30;9.10;;;9.20;1.00;;;;;;5035429;28;20184;-60
2021/05/01 01:50:42;;;;;;;11.10;9.53;;;9.20;1.00;;;;;;5035369;28;20227;-59
2021/05/01 01:53:08;;;;;;;9.70;8.70;;;9.00;1.00;;;;;;5034907;28;20639;-59
2021/05/01 01:55:35;;;;;;;10.23;9.20;;;9.10;2.60;;;;;;5034764;28;20177;-60
2021/05/01 01:58:01;;;;;;;9.80;8.32;;;9.10;1.00;;;;;;5035066;28;20188;-59
2021/05/01 02:00:28;;;;;;;11.40;9.13;;;9.10;1.00;;;;;;5034917;28;20618;-59
2021/05/01 02:02:54;;;;;;;11.68;9.25;;;9.00;1.00;;;;;;5050513;28;20621;-59
2021/05/01 02:05:21;;;;;;;10.38;8.60;;;9.00;1.00;;;;;;5034457;28;20572;-59
2021/05/01 02:07:46;;;;;;;10.27;7.90;;;9.20;1.00;;;;;;5035057;28;20184;-59
2021/05/01 02:10:14;;;;;;;10.80;9.17;;;9.00;1.00;;;;;;5034666;28;20553;-59
2021/05/01 02:12:41;;;;;;;10.57;9.32;;;9.10;1.00;;;;;;5034597;28;20215;-59
2021/05/01 02:15:11;;;;;;;12.02;8.60;;;9.10;1.00;;;;;;5034051;28;20211;-59
2021/05/01 02:17:42;;;;;;;10.45;9.27;;;9.10;1.00;;;;;;5034777;28;20185;-60
2021/05/01 02:20:10;;;;;;;9.48;8.35;;;9.10;1.00;;;;;;5034619;28;20268;-59
2021/05/01 02:22:35;;;;;;;10.35;8.88;;;9.10;1.00;;;;;;5035199;28;20198;-59
2021/05/01 02:25:01;;;;;;;13.60;9.47;;;9.10;1.00;;;;;;5033905;28;20522;-59
2021/05/01 02:27:27;;;;;;;9.60;8.55;;;9.10;1.00;;;;;;5034365;28;20271;-63
2021/05/01 02:29:53;;;;;;;10.80;9.70;;;9.20;1.00;;;;;;5034448;28;20315;-60
2021/05/01 02:32:18;;;;;;;12.37;9.80;;;9.30;1.00;;;;;;5034886;28;20180;-60
2021/05/01 02:34:44;;;;;;;11.40;9.17;;;9.20;1.00;;;;;;5033755;28;20239;-60
2021/05/01 02:37:09;;;;;;;9.73;8.73;;;9.00;1.00;;;;;;5034453;28;20184;-63
2021/05/01 02:39:36;;;;;;;12.67;8.67;;;8.90;1.00;;;;;;5034483;28;20188;-63
2021/05/01 02:42:01;;;;;;;10.68;8.70;;;8.90;6.40;;;;;;5034572;28;20223;-59
2021/05/01 02:44:27;;;;;;;11.07;8.30;;;8.90;16.90;;;;;;5033844;28;20216;-60
2021/05/01 02:46:53;;;;;;;10.98;9.50;;;8.90;28.10;;;;;;5034944;28;20260;-62
2021/05/01 02:49:19;;;;;;;11.30;9.13;;;8.90;27.50;;;;;;5034701;28;20757;-59
2021/05/01 02:51:44;;;;;;;11.67;9.87;;;8.90;21.00;;;;;;5034558;28;20254;-62
2021/05/01 02:54:10;;;;;;;11.80;8.83;;;8.90;17.40;;;;;;5033466;28;20180;-63
2021/05/01 02:56:36;;;;;;;11.07;9.77;;;8.80;26.00;;;;;;5033626;28;20484;-60
2021/05/01 02:59:02;;;;;;;10.70;9.23;;;8.90;16.80;;;;;;5034560;28;20436;-62
2021/05/01 03:01:30;;;;;;;12.40;9.47;;;8.80;14.10;;;;;;5034331;28;20189;-59
2021/05/01 03:03:56;;;;;;;11.88;9.93;;;8.80;27.00;;;;;;5033468;28;20184;-59
2021/05/01 03:06:21;;;;;;;10.03;8.90;;;8.90;31.80;;;;;;5034006;28;20634;-59
2021/05/01 03:08:47;;;;;;;13.20;10.60;;;9.00;35.20;;;;;;5033794;28;20552;-59
2021/05/01 03:11:12;;;;;;;9.50;8.57;;;8.90;18.30;;;;;;5033996;28;20199;-59
2021/05/01 03:13:38;;;;;;;12.83;8.83;;;8.90;29.20;;;;;;5033711;28;20495;-60
2021/05/01 03:16:04;;;;;;;10.63;9.53;;;8.90;22.50;;;;;;5015977;28;20518;-62
2021/05/01 03:18:29;;;;;;;11.18;8.95;;;8.80;28.60;;;;;;5032813;28;20189;-62
2021/05/01 03:20:55;;;;;;;13.23;10.20;;;8.90;48.60;;;;;;5033717;28;20680;-62
2021/05/01 03:23:21;;;;;;;10.60;9.50;;;8.90;29.90;;;;;;5033401;28;20695;-62
2021/05/01 03:25:47;;;;;;;11.80;8.67;;;8.90;19.90;;;;;;5033258;28;20280;-59
2021/05/01 03:28:13;;;;;;;11.10;9.82;;;8.90;15.80;;;;;;5049162;28;20192;-59
2021/05/01 03:30:38;;;;;;;14.63;10.77;;;8.80;1.00;;;;;;5033632;28;20235;-59
2021/05/01 03:33:04;;;;;;;11.27;10.07;;;8.80;20.60;;;;;;5033598;28;20192;-59
2021/05/01 03:35:30;;;;;;;12.63;10.10;;;8.70;23.00;;;;;;5033466;28;20299;-62
2021/05/01 03:37:56;;;;;;;12.40;10.27;;;8.70;48.30;;;;;;5033248;28;20208;-59
2021/05/01 03:40:22;;;;;;;16.53;10.60;;;8.70;49.20;;;;;;5033380;28;20181;-59
2021/05/01 03:42:48;;;;;;;13.65;10.73;;;8.90;46.90;;;;;;5033184;28;20177;-59
2021/05/01 03:45:14;;;;;;;15.00;10.30;;;9.00;26.30;;;;;;5032480;28;20246;-60
2021/05/01 03:47:40;;;;;;;11.13;9.25;;;8.90;9.20;;;;;;5033332;28;20566;-60
2021/05/01 03:50:10;;;;;;;12.53;10.03;;;8.90;22.80;;;;;;5033232;28;20296;-60
2021/05/01 03:52:37;;;;;;;13.50;10.18;;;8.90;7.90;;;;;;5032884;28;20204;-59
2021/05/01 03:55:04;;;;;;;12.68;10.30;;;8.80;1.60;;;;;;5030022;28;20485;-59
2021/05/01 03:57:29;;;;;;;11.98;9.30;;;8.70;12.90;;;;;;5032936;28;20238;-59
2021/05/01 03:59:55;;;;;;;11.40;9.80;;;8.70;10.50;;;;;;5033111;28;20261;-59
2021/05/01 04:02:21;;;;;;;12.20;9.23;;;8.60;35.90;;;;;;5033331;28;20182;-59
2021/05/01 04:04:46;;;;;;;14.87;10.83;;;8.60;74.70;;;;;;5032250;28;20194;-59
2021/05/01 04:07:15;;;;;;;13.17;10.37;;;8.70;89.00;;;;;;5031824;28;20189;-59
2021/05/01 04:09:43;;;;;;;14.13;10.55;;;8.90;72.20;;;;;;5032929;28;20220;-59
2021/05/01 04:12:09;;;;;;;12.50;10.23;;;8.90;55.70;;;;;;5032760;28;20247;-59
2021/05/01 04:14:34;;;;;;;15.40;10.50;;;8.90;27.50;;;;;;5032419;28;20187;-59
2021/05/01 04:17:00;;;;;;;11.40;9.60;;;8.90;34.40;;;;;;5032935;28;20263;-59
2021/05/01 04:19:25;;;;;;;12.33;10.70;;;8.90;20.30;;;;;;5032972;28;20563;-59
2021/05/01 04:21:51;;;;;;;14.83;11.10;;;8.70;9.50;;;;;;5033082;28;20184;-59
2021/05/01 04:24:17;;;;;;;16.30;10.80;;;8.70;21.70;;;;;;5032592;28;20192;-60
2021/05/01 04:26:42;;;;;;;13.33;10.40;;;8.50;20.20;;;;;;5032667;28;20557;-59
2021/05/01 04:29:08;;;;;;;14.50;11.63;;;8.50;55.60;;;;;;5032526;28;20206;-59
2021/05/01 04:31:33;;;;;;;15.83;11.63;;;8.50;54.50;;;;;;5032715;28;20174;-59
2021/05/01 04:33:59;;;;;;;13.10;10.00;;;8.30;82.50;;;;;;5032039;28;20243;-59
2021/05/01 04:36:24;;;;;;;15.37;10.80;;;8.20;84.40;;;;;;5033060;28;20177;-63
2021/05/01 04:38:50;;;;;;;18.03;10.70;;;8.20;98.40;;;;;;5032777;28;20643;-62
2021/05/01 04:41:18;;;;;;;15.20;9.90;;;8.20;99.90;;;;;;5032643;28;20254;-62
2021/05/01 04:43:46;;;;;;;15.27;11.38;;;8.40;99.90;;;;;;5032250;28;20185;-62
2021/05/01 04:46:17;;;;;;;13.15;10.75;;;8.30;83.20;;;;;;5032556;28;20265;-62
2021/05/01 04:48:43;;;;;;;13.45;10.60;;;8.30;79.30;;;;;;5032860;28;20339;-59
2021/05/01 04:51:09;;;;;;;15.33;11.77;;;8.40;76.20;;;;;;5032527;28;20630;-62
2021/05/01 04:53:34;;;;;;;13.90;10.67;;;8.40;46.40;;;;;;5032511;28;20423;-59
2021/05/01 04:56:00;;;;;;;14.17;11.20;;;8.40;33.30;;;;;;5032124;28;20180;-60
2021/05/01 04:58:25;;;;;;;14.20;9.47;;;8.50;23.30;;;;;;5032617;28;20188;-59
2021/05/01 05:00:51;;;;;;;11.30;10.20;;;8.40;1.00;;;;;;5032649;28;20182;-59
2021/05/01 05:03:16;;;;;;;14.20;10.90;;;8.50;1.00;;;;;;5032259;28;20201;-59
2021/05/01 05:05:42;;;;;;;11.03;9.73;;;8.50;1.00;;;;;;5032217;28;20195;-59
2021/05/01 05:08:08;;;;;;;13.07;10.43;;;8.50;1.00;;;;;;5032451;28;20513;-59
2021/05/01 05:10:33;;;;;;;13.43;10.57;;;8.40;1.00;;;;;;5031349;28;20188;-59
2021/05/01 05:12:59;;;;;;;12.90;9.80;;;8.20;1.00;;;;;;5032340;28;20192;-59
2021/05/01 05:15:28;;;;;;;11.67;8.73;;;8.20;1.00;;;;;;5032076;28;20570;-59
2021/05/01 05:17:54;;;;;;;18.08;10.27;;;8.00;1.00;;;;;;5032387;28;20699;-59
2021/05/01 05:20:20;;;;;;;12.47;9.77;;;8.00;1.00;;;;;;5035539;28;20181;-59
2021/05/01 05:22:45;;;;;;;12.10;9.80;;;8.00;19.70;;;;;;5034555;28;20478;-59
2021/05/01 05:25:11;;;;;;;11.60;9.20;;;8.00;15.00;;;;;;5035179;28;20913;-59
2021/05/01 05:27:37;;;;;;;13.57;9.20;;;8.10;20.20;;;;;;5051282;28;20206;-60
2021/05/01 05:30:04;;;;;;;10.83;9.20;;;8.10;1.00;;;;;;5035680;28;20746;-59
2021/05/01 05:32:29;;;;;;;11.63;9.52;;;8.10;1.00;;;;;;5035935;28;20444;-59
2021/05/01 05:34:55;;;;;;;15.53;10.20;;;8.20;1.00;;;;;;5035067;28;20621;-59
2021/05/01 05:37:21;;;;;;;10.50;8.67;;;8.10;1.00;;;;;;5034597;28;20497;-62
2021/05/01 05:39:48;;;;;;;15.45;10.23;;;8.10;1.00;;;;;;5035650;28;20216;-59
2021/05/01 05:42:15;;;;;;;12.73;10.05;;;8.10;1.00;;;;;;5035463;28;20211;-59
2021/05/01 05:44:43;;;;;;;10.27;8.35;;;8.10;1.00;;;;;;5050351;28;20191;-59
2021/05/01 05:47:09;;;;;;;15.63;11.00;;;8.10;1.00;;;;;;5034420;28;20178;-59
2021/05/01 05:49:35;;;;;;;12.60;9.50;;;8.10;1.00;;;;;;5035302;28;20281;-62
2021/05/01 05:52:03;;;;;;;12.50;9.63;;;8.20;1.00;;;;;;5035453;28;20253;-63
2021/05/01 05:54:29;;;;;;;12.20;9.40;;;8.40;1.00;;;;;;5034093;28;20209;-62
2021/05/01 05:56:55;;;;;;;11.63;9.73;;;8.30;1.00;;;;;;5034966;28;20634;-62
2021/05/01 05:59:22;;;;;;;9.97;8.97;;;8.20;1.00;;;;;;5035171;28;20523;-63
2021/05/01 06:01:48;;;;;;;10.82;9.25;;;8.10;1.00;;;;;;5035450;28;20201;-62
2021/05/01 06:04:16;;;;;;;14.05;9.85;;;8.00;1.00;;;;;;5034586;28;20191;-59
2021/05/01 06:06:52;;;;;;;13.07;8.30;;;8.00;1.00;;;;;;5034213;28;20595;-59
2021/05/01 06:09:19;;;;;;;8.60;7.55;;;8.00;1.00;;;;;;5034679;28;20376;-59
2021/05/01 06:11:48;;;;;;;9.57;8.32;;;8.10;1.00;;;;;;5034708;28;20667;-59
2021/05/01 06:14:16;;;;;;;10.90;8.70;;;8.40;1.00;;;;;;5034486;28;20190;-60
2021/05/01 06:16:44;;;;;;;8.65;7.18;;;8.30;1.00;;;;;;5034948;28;20202;-62
2021/05/01 06:19:11;;;;;;;9.88;7.95;;;8.50;1.00;;;;;;5035034;28;20194;-62
2021/05/01 06:21:37;;;;;;;9.23;8.05;;;8.70;1.00;;;;;;5034857;28;20189;-62
2021/05/01 06:24:04;;;;;;;10.82;8.60;;;8.70;1.00;;;;;;5034135;28;20277;-59
2021/05/01 06:26:30;;;;;;;8.98;7.93;;;8.60;1.00;;;;;;5034928;28;20307;-59
2021/05/01 06:28:56;;;;;;;9.68;7.30;;;8.60;1.00;;;;;;5034504;28;20273;-59
2021/05/01 06:31:23;;;;;;;10.95;8.70;;;8.70;1.00;;;;;;5035020;28;20556;-59
2021/05/01 06:33:49;;;;;;;9.35;7.60;;;8.80;1.00;;;;;;5034007;28;20613;-59
2021/05/01 06:36:16;;;;;;;9.82;7.47;;;9.00;1.00;;;;;;5034878;28;20235;-60
2021/05/01 06:38:42;;;;;;;9.73;8.10;;;9.30;99.90;;;;;;5034304;28;20188;-60
2021/05/01 06:41:09;;;;;;;8.47;7.57;;;9.50;99.90;;;;;;5034334;28;20180;-59
2021/05/01 06:44:06;;;;;;;10.43;8.38;;;9.60;99.90;;;;;;5034290;28;20432;-60
2021/05/01 06:46:42;;;;;;;11.10;7.95;;;9.50;3.90;;;;;;5034321;28;20495;-60
2021/05/01 06:49:12;;;;;;;9.90;8.43;;;9.80;1.00;;;;;;5034044;28;20274;-59
2021/05/01 06:51:40;;;;;;;10.35;7.60;;;9.70;1.00;;;;;;5034110;28;20247;-59
2021/05/01 06:54:10;;;;;;;13.07;8.20;;;9.30;1.00;;;;;;5033324;28;20186;-60
2021/05/01 06:56:43;;;;;;;9.20;7.32;;;9.40;29.70;;;;;;5034006;28;20307;-59
2021/05/01 06:59:10;;;;;;;8.25;7.28;;;9.20;99.90;;;;;;5033825;28;20268;-59
2021/05/01 07:01:39;;;;;;;10.52;8.73;;;9.40;99.90;;;;;;5033616;28;20323;-62
2021/05/01 07:04:07;;;;;;;10.15;9.10;;;9.60;99.90;;;;;;5033225;28;20263;-62
2021/05/01 07:06:34;;;;;;;9.23;7.65;;;10.00;99.90;;;;;;5016401;28;20521;-62
2021/05/01 07:09:00;;;;;;;8.82;7.90;;;10.20;1.00;;;;;;5033257;28;20224;-62
2021/05/01 07:11:28;;;;;;;11.03;8.03;;;10.20;1.00;;;;;;5033657;28;20567;-62
2021/05/01 07:13:54;;;;;;;10.55;8.10;;;10.40;99.90;;;;;;5048480;28;20428;-60
2021/05/01 07:16:20;;;;;;;10.03;8.83;;;10.70;92.80;;;;;;5033439;28;20515;-60
2021/05/01 07:18:48;;;;;;;9.15;7.88;;;11.00;1.00;;;;;;5033735;28;20435;-59
2021/05/01 07:21:15;;;;;;;8.45;7.57;;;11.30;1.00;;;;;;5033609;28;20189;-60
2021/05/01 07:23:40;;;;;;;9.10;7.38;;;11.20;1.00;;;;;;5033305;28;20185;-60
2021/05/01 07:26:10;;;;;;;8.90;7.30;;;11.10;1.00;;;;;;5033040;28;20177;-60
2021/05/01 07:28:37;;;;;;;10.43;7.90;;;11.30;1.00;;;;;;5033385;28;20638;-59
2021/05/01 07:31:06;;;;;;;11.38;7.90;;;11.30;99.90;;;;;;5033227;28;20177;-60
2021/05/01 07:33:41;;;;;;;11.93;9.15;;;11.20;99.90;;;;;;5033337;28;20181;-59
2021/05/01 07:36:14;;;;;;;8.57;7.68;;;11.40;99.90;;;;;;5033012;28;20173;-59
2021/05/01 07:38:43;;;;;;;13.23;8.23;;;11.40;1.00;;;;;;5033150;28;20181;-59
2021/05/01 07:41:11;;;;;;;8.82;7.38;;;11.40;1.00;;;;;;5032839;28;20630;-59
2021/05/01 07:43:41;;;;;;;11.50;8.40;;;11.30;1.00;;;;;;5033092;28;20251;-59
2021/05/01 07:46:06;;;;;;;9.68;8.30;;;11.40;51.90;;;;;;5032812;28;20177;-59
2021/05/01 07:48:33;;;;;;;9.70;8.50;;;11.40;99.90;;;;;;5033278;28;20300;-59
2021/05/01 07:51:00;;;;;;;9.68;8.30;;;11.50;1.00;;;;;;5033074;28;20173;-59
2021/05/01 07:53:26;;;;;;;10.27;8.57;;;11.80;99.90;;;;;;5032091;28;20185;-63
2021/05/01 07:55:52;;;;;;;8.83;7.53;;;11.90;1.00;;;;;;5032654;28;20173;-63
2021/05/01 07:58:17;;;;;;;10.40;8.67;;;11.80;1.00;;;;;;5033103;28;20505;-59
2021/05/01 08:00:44;;;;;;;9.40;8.40;;;11.60;46.00;;;;;;5033368;28;20239;-60
2021/05/01 08:03:10;;;;;;;13.25;7.88;;;11.90;1.00;;;;;;5032716;28;20572;-62
2021/05/01 08:05:35;;;;;;;9.55;8.50;;;11.90;1.00;;;;;;5032923;28;20178;-59
2021/05/01 08:08:01;;;;;;;8.20;7.20;;;12.10;99.90;;;;;;5033025;28;20327;-59
2021/05/01 08:10:27;;;;;;;10.37;8.33;;;11.90;99.90;;;;;;5032990;28;20213;-59
2021/05/01 08:12:53;;;;;;;9.70;8.70;;;12.10;1.00;;;;;;5033418;28;20255;-59
2021/05/01 08:15:18;;;;;;;8.93;7.80;;;12.50;1.00;;;;;;5032525;28;20182;-59
2021/05/01 08:17:44;;;;;;;11.20;7.97;;;12.50;99.90;;;;;;5033088;28;20192;-62
2021/05/01 08:20:12;;;;;;;11.37;8.63;;;12.90;99.90;;;;;;5032982;28;20904;-59
2021/05/01 08:22:39;;;;;;;8.55;7.75;;;13.10;9.70;;;;;;5033123;28;20477;-63
2021/05/01 08:25:07;;;;;;;9.10;8.15;;;12.90;1.00;;;;;;5031924;28;20216;-63
2021/05/01 08:27:32;;;;;;;10.57;7.82;;;12.80;1.00;;;;;;5032592;28;20243;-59
2021/05/01 08:29:58;;;;;;;10.60;8.67;;;13.10;1.00;;;;;;5032491;28;20571;-59
2021/05/01 08:32:24;;;;;;;9.40;8.43;;;13.20;1.00;;;;;;5032942;28;20430;-62
2021/05/01 08:34:50;;;;;;;13.90;9.45;;;12.60;1.00;;;;;;5032397;28;20181;-59
2021/05/01 08:37:15;;;;;;;10.53;7.90;;;12.40;99.90;;;;;;5032708;28;20177;-63
2021/05/01 08:39:41;;;;;;;9.17;8.20;;;12.50;1.00;;;;;;5042190;28;20184;-62
2021/05/01 08:42:08;;;;;;;10.50;8.20;;;12.60;99.90;;;;;;5050249;28;20519;-63
2021/05/01 08:44:33;;;;;;;10.48;9.27;;;12.80;99.90;;;;;;5051182;28;20227;-63
2021/05/01 08:46:59;;;;;;;9.13;8.13;;;13.10;1.00;;;;;;5051481;28;20637;-63
2021/05/01 08:49:25;;;;;;;9.10;8.20;;;13.20;1.00;;;;;;5052370;28;20200;-65
2021/05/01 08:51:51;;;;;;;12.13;8.40;;;12.90;99.90;;;;;;5052290;28;20479;-65
2021/05/01 08:54:16;;;;;;;10.23;9.20;;;13.00;99.90;;;;;;5053415;28;20185;-65
2021/05/01 08:56:43;;;;;;;9.80;8.43;;;13.10;99.90;;;;;;5056078;28;20181;-65
2021/05/01 08:59:09;;;;;;;11.02;8.77;;;12.90;1.00;;;;;;5055239;28;20189;-63
2021/05/01 09:01:38;;;;;;;9.83;8.33;;;12.70;99.90;;;;;;5056274;28;20537;-63
2021/05/01 09:04:09;;;;;;;11.50;9.65;;;12.80;99.90;;;;;;5055907;28;20188;-63
2021/05/01 09:06:36;;;;;;;9.70;8.77;;;12.50;1.00;;;;;;5055641;28;20188;-63
2021/05/01 09:09:05;;;;;;;8.95;7.68;;;12.90;1.00;;;;;;5055442;28;20588;-63
2021/05/01 09:11:41;;;;;;;11.00;7.97;;;12.90;1.00;;;;;;5055712;28;20680;-65
2021/05/01 09:14:18;;;;;;;10.65;9.10;;;12.70;1.00;;;;;;5055314;28;20192;-63
2021/05/01 09:16:55;;;;;;;10.57;8.55;;;12.80;1.00;;;;;;5055822;28;20181;-62
2021/05/01 09:19:35;;;;;;;10.20;8.85;;;13.00;99.90;;;;;;5055912;28;20548;-63
2021/05/01 09:22:14;;;;;;;11.48;8.52;;;12.90;99.90;;;;;;5055487;28;20527;-63
2021/05/01 09:24:43;;;;;;;10.63;9.05;;;13.10;1.00;;;;;;5054979;28;20194;-62
2021/05/01 09:27:14;;;;;;;8.23;7.43;;;12.70;1.00;;;;;;5055371;28;20219;-63
2021/05/01 09:29:40;;;;;;;13.32;10.10;;;13.00;1.00;;;;;;5055276;28;20339;-64
2021/05/01 09:32:22;;;;;;;10.43;9.43;;;13.30;99.90;;;;;;5055275;28;20392;-64
2021/05/01 09:34:52;;;;;;;11.52;9.02;;;13.40;1.00;;;;;;5055250;28;20190;-67
2021/05/01 09:37:21;;;;;;;14.52;9.60;;;13.00;1.00;;;;;;5054119;28;20504;-62
2021/05/01 09:39:52;;;;;;;12.23;8.68;;;12.40;99.90;;;;;;5055384;28;20184;-60
2021/05/01 09:42:21;;;;;;;9.68;8.68;;;12.60;1.00;;;;;;5054741;28;20177;-64
2021/05/01 09:44:47;;;;;;;10.15;8.75;;;13.10;1.00;;;;;;5054802;28;20251;-65
2021/05/01 09:47:17;;;;;;;10.95;9.75;;;13.20;1.10;;;;;;5054067;28;20188;-65
2021/05/01 09:49:46;;;;;;;11.95;9.65;;;13.70;1.00;;;;;;5055328;28;20291;-65
2021/05/01 09:52:13;;;;;;;10.32;8.90;;;13.70;94.20;;;;;;5053793;28;20272;-64
2021/05/01 09:54:46;;;;;;;13.05;9.25;;;13.70;99.90;;;;;;5054119;28;20176;-64
2021/05/01 09:57:17;;;;;;;10.27;8.88;;;13.60;99.90;;;;;;5054711;28;20690;-64
2021/05/01 09:59:48;;;;;;;11.25;9.90;;;13.50;99.90;;;;;;5055024;28;20200;-66
2021/05/01 10:02:17;;;;;;;9.95;8.93;;;13.40;99.90;;;;;;5054667;28;20181;-67
2021/05/01 10:05:12;;;;;;;12.70;10.20;;;13.40;99.90;;;;;;5053497;28;20272;-66
2021/05/01 10:07:41;;;;;;;11.02;9.35;;;13.40;1.00;;;;;;5053768;28;20231;-67
2021/05/01 10:10:07;;;;;;;12.40;9.60;;;13.50;1.00;;;;;;5054267;28;20270;-61
2021/05/01 10:12:41;;;;;;;11.90;9.53;;;13.70;1.00;;;;;;5054175;28;20172;-61
2021/05/01 10:15:23;;;;;;;9.68;8.13;;;14.00;99.90;;;;;;5053732;28;20420;-61
2021/05/01 10:17:50;;;;;;;10.38;8.32;;;14.60;1.00;;;;;;5054223;28;20644;-61
2021/05/01 10:20:16;;;;;;;10.32;9.23;;;14.10;1.00;;;;;;5054611;28;20235;-63
2021/05/01 10:22:44;;;;;;;9.82;8.80;;;14.30;1.00;;;;;;5054283;28;20235;-65
2021/05/01 10:25:25;;;;;;;10.63;9.50;;;14.30;54.40;;;;;;5053801;28;20177;-65
2021/05/01 10:27:59;;;;;;;10.35;8.57;;;13.80;1.00;;;;;;5053934;28;20180;-65
2021/05/01 10:30:52;;;;;;;10.93;8.82;;;13.70;99.90;;;;;;5054013;28;20729;-67
2021/05/01 10:33:37;;;;;;;10.23;9.23;;;13.60;99.90;;;;;;5052794;28;20187;-66
2021/05/01 10:36:15;;;;;;;9.73;8.57;;;13.80;99.90;;;;;;5053802;28;20176;-66
2021/05/01 10:38:41;;;;;;;11.32;8.82;;;13.80;99.90;;;;;;5053162;28;20207;-66
2021/05/01 10:41:18;;;;;;;11.55;10.20;;;13.80;9.90;;;;;;5054572;28;20575;-66
2021/05/01 10:43:55;;;;;;;10.30;9.02;;;13.50;99.90;;;;;;5053568;28;20177;-66
2021/05/01 10:46:28;;;;;;;10.57;8.77;;;13.20;99.90;;;;;;5054266;28;20180;-64
2021/05/01 10:48:58;;;;;;;12.07;9.40;;;13.50;99.90;;;;;;5053795;28;20212;-67
2021/05/01 10:51:26;;;;;;;12.20;9.25;;;14.10;1.00;;;;;;5053678;28;20191;-68
2021/05/01 10:54:16;;;;;;;8.50;7.70;;;14.60;1.00;;;;;;5052980;28;20183;-68
2021/05/01 10:56:47;;;;;;;9.63;8.68;;;15.20;99.90;;;;;;5054004;28;20180;-67
2021/05/01 10:59:25;;;;;;;9.27;8.32;;;15.90;17.30;;;;;;5052556;28;20191;-68
2021/05/01 11:01:53;;;;;;;9.50;8.50;;;16.10;47.90;;;;;;5053523;28;20192;-68
2021/05/01 11:04:21;;;;;;;10.43;9.43;;;15.70;79.00;;;;;;5053056;28;20461;-67
2021/05/01 11:06:50;;;;;;;10.07;9.07;;;15.10;99.90;;;;;;5053903;28;20181;-68
2021/05/01 11:09:30;;;;;;;10.50;9.50;;;15.40;99.90;;;;;;5053081;28;20274;-62
2021/05/01 11:12:00;;;;;;;10.13;9.10;;;14.90;99.90;;;;;;5052412;28;20191;-62
2021/05/01 11:14:31;;;;;;;10.40;8.60;;;14.90;99.90;;;;;;5052531;28;20188;-61
2021/05/01 11:17:16;;;;;;;9.93;8.95;;;14.80;99.90;;;;;;5052371;28;20911;-62
2021/05/01 11:19:46;;;;;;;9.20;8.25;;;15.20;99.90;;;;;;5053063;28;20212;-62
2021/05/01 11:22:13;;;;;;;10.63;9.35;;;15.40;99.90;;;;;;5053241;28;20209;-62
2021/05/01 11:24:40;;;;;;;10.75;8.98;;;15.40;99.90;;;;;;5052456;28;20177;-61
2021/05/01 11:27:06;;;;;;;11.20;10.00;;;15.20;99.90;;;;;;5053349;28;20244;-61
2021/05/01 11:29:33;;;;;;;11.10;9.80;;;14.60;99.90;;;;;;5053056;28;20204;-61
2021/05/01 11:31:59;;;;;;;12.13;8.88;;;14.80;99.90;;;;;;5053084;28;20181;-62
2021/05/01 11:34:30;;;;;;;10.57;9.37;;;15.10;99.90;;;;;;5052364;28;20181;-61
2021/05/01 11:36:59;;;;;;;11.05;9.20;;;15.50;99.90;;;;;;5053478;28;20438;-61
2021/05/01 11:39:27;;;;;;;13.15;9.95;;;16.00;99.90;;;;;;5053162;28;20271;-61
2021/05/01 11:41:54;;;;;;;12.35;9.57;;;16.00;90.50;;;;;;5053057;28;20185;-61
2021/05/01 11:44:19;;;;;;;9.50;8.50;;;15.60;99.90;;;;;;5052119;28;20181;-61
2021/05/01 11:47:08;;;;;;;11.80;10.57;;;15.40;94.80;;;;;;5052805;28;20493;-61
2021/05/01 11:49:34;;;;;;;10.75;9.45;;;15.10;99.90;;;;;;5053007;28;20217;-60
2021/05/01 11:52:23;;;;;;;13.90;10.37;;;14.80;99.90;;;;;;5053028;28;20191;-60
2021/05/01 11:54:49;;;;;;;9.68;8.77;;;14.70;99.90;;;;;;5052251;28;20473;-65
2021/05/01 11:57:19;;;;;;;11.98;9.25;;;14.60;1.00;;;;;;5053015;28;20648;-64
2021/05/01 11:59:46;;;;;;;11.88;10.27;;;14.60;1.00;;;;;;5052742;28;20185;-64
2021/05/01 12:02:18;;;;;;;13.02;11.10;;;14.60;99.90;;;;;;5053053;28;20180;-61
2021/05/01 12:04:55;;;;;;;11.38;10.18;;;14.50;99.90;;;;;;5052554;28;20181;-64
2021/05/01 12:07:30;;;;;;;9.27;8.35;;;13.90;26.10;;;;;;5050470;28;20196;-60
2021/05/01 12:10:03;;;;;;;12.00;9.65;;;14.00;99.90;;;;;;5049677;28;20295;-59
2021/05/01 12:12:29;;;;;;;11.18;9.52;;;13.70;1.00;;;;;;5053063;28;20191;-63
2021/05/01 12:15:02;;;;;;;12.45;10.38;;;13.50;1.00;;;;;;5051768;28;20189;-64
2021/05/01 12:17:31;;;;;;;11.75;9.98;;;13.50;99.90;;;;;;5053332;28;20733;-63
2021/05/01 12:20:26;;;;;;;10.32;8.68;;;13.70;1.00;;;;;;5054273;28;20193;-63
2021/05/01 12:23:01;;;;;;;25.40;15.77;;;13.40;40.40;;;;;;5051788;28;20201;-59
2021/05/01 12:25:30;;;;;;;10.75;9.30;;;13.40;99.90;;;;;;5052054;28;20195;-59
2021/05/01 12:27:56;;;;;;;10.63;8.80;;;13.50;99.90;;;;;;5052659;28;20208;-59
2021/05/01 12:30:40;;;;;;;12.27;9.73;;;13.60;1.00;;;;;;5057389;28;20212;-59
2021/05/01 12:33:31;;;;;;;11.70;10.10;;;13.60;19.20;;;;;;5057054;28;20508;-59
2021/05/01 12:36:11;;;;;;;15.43;10.90;;;13.70;1.00;;;;;;5055460;28;20571;-59
2021/05/01 12:38:39;;;;;;;9.20;8.10;;;13.70;1.00;;;;;;5056667;28;20621;-63
2021/05/01 12:41:10;;;;;;;11.80;7.80;;;13.60;99.90;;;;;;5056371;28;20568;-63
2021/05/01 12:43:39;;;;;;;8.30;7.45;;;13.70;99.90;;;;;;5055809;28;20256;-64
2021/05/01 12:46:14;;;;;;;8.48;7.68;;;14.10;27.90;;;;;;5056221;28;20492;-63
2021/05/01 12:48:50;;;;;;;8.38;7.30;;;14.10;1.00;;;;;;5056193;28;20176;-64
2021/05/01 12:51:30;;;;;;;8.80;7.95;;;14.20;99.90;;;;;;5055892;28;20219;-63
2021/05/01 12:53:58;;;;;;;10.18;8.70;;;14.00;1.00;;;;;;5054610;28;20258;-63